sensor_id;sensor_type;location;lat;lon;timestamp;pressure;altitude;pressure_sealevel;temperature;humidity
21236;BME280;10775;42.678;26.324;2024-03-17T00:01:04;99082.94;;;8.41;100.00
21236;BME280;10775;42.678;26.324;2024-03-17T00:03:30;99078.63;;;8.40;100.00
21236;BME280;10775;42.678;26.324;2024-03-17T00:05:59;99078.63;;;8.31;100.00
21236;BME280;10775;42.678;26.324;2024-03-17T00:08:25;99077.84;;;8.07;100.00
21236;BME280;10775;42.678;26.324;2024-03-17T00:10:51;99077.06;;;7.85;100.00
21236;BME280;10775;42.678;26.324;2024-03-17T00:13:17;99076.19;;;7.89;100.00
21236;BME280;10775;42.678;26.324;2024-03-17T00:15:43;99072.69;;;7.98;100.00
21236;BME280;10775;42.678;26.324;2024-03-17T00:18:12;99073.56;;;7.98;100.00
21236;BME280;10775;42.678;26.324;2024-03-17T00:20:38;99072.69;;;7.99;100.00
21236;BME280;10775;42.678;26.324;2024-03-17T00:23:04;99060.53;;;7.92;100.00
21236;BME280;10775;42.678;26.324;2024-03-17T00:25:34;99063.16;;;7.94;100.00
21236;BME280;10775;42.678;26.324;2024-03-17T00:28:02;99062.28;;;7.96;100.00
21236;BME280;10775;42.678;26.324;2024-03-17T00:30:28;99063.13;;;8.00;100.00
21236;BME280;10775;42.678;26.324;2024-03-17T00:32:53;99062.22;;;8.10;100.00
21236;BME280;10775;42.678;26.324;2024-03-17T00:35:19;99059.66;;;8.04;100.00
21236;BME280;10775;42.678;26.324;2024-03-17T00:37:48;99063.09;;;8.07;100.00
21236;BME280;10775;42.678;26.324;2024-03-17T00:40:14;99071.78;;;8.08;100.00
21236;BME280;10775;42.678;26.324;2024-03-17T00:42:40;99063.13;;;7.97;100.00
21236;BME280;10775;42.678;26.324;2024-03-17T00:45:10;99061.41;;;7.96;100.00
21236;BME280;10775;42.678;26.324;2024-03-17T00:47:37;99059.63;;;8.09;100.00
21236;BME280;10775;42.678;26.324;2024-03-17T00:50:03;99057.06;;;8.05;100.00
21236;BME280;10775;42.678;26.324;2024-03-17T00:52:29;99054.50;;;7.79;100.00
21236;BME280;10775;42.678;26.324;2024-03-17T00:54:55;99065.81;;;7.71;100.00
21236;BME280;10775;42.678;26.324;2024-03-17T00:57:20;99064.13;;;7.62;100.00
21236;BME280;10775;42.678;26.324;2024-03-17T00:59:45;99054.53;;;7.73;100.00
21236;BME280;10775;42.678;26.324;2024-03-17T01:02:11;99056.22;;;7.90;100.00
21236;BME280;10775;42.678;26.324;2024-03-17T01:04:41;99051.84;;;7.95;100.00
21236;BME280;10775;42.678;26.324;2024-03-17T01:07:07;99047.56;;;7.77;100.00
21236;BME280;10775;42.678;26.324;2024-03-17T01:09:33;99041.56;;;7.62;100.00
21236;BME280;10775;42.678;26.324;2024-03-17T01:11:58;99045.84;;;7.74;100.00
21236;BME280;10775;42.678;26.324;2024-03-17T01:14:23;99042.34;;;7.86;100.00
21236;BME280;10775;42.678;26.324;2024-03-17T01:16:51;99043.22;;;7.82;100.00
21236;BME280;10775;42.678;26.324;2024-03-17T01:19:16;99035.44;;;7.77;100.00
21236;BME280;10775;42.678;26.324;2024-03-17T01:21:42;99038.91;;;7.82;100.00
21236;BME280;10775;42.678;26.324;2024-03-17T01:24:08;99028.47;;;7.84;100.00
21236;BME280;10775;42.678;26.324;2024-03-17T01:26:33;99029.31;;;7.91;100.00
21236;BME280;10775;42.678;26.324;2024-03-17T01:28:59;99037.13;;;7.84;100.00
21236;BME280;10775;42.678;26.324;2024-03-17T01:31:24;99038.94;;;7.61;100.00
21236;BME280;10775;42.678;26.324;2024-03-17T01:33:50;99038.97;;;7.55;100.00
21236;BME280;10775;42.678;26.324;2024-03-17T01:36:15;99037.25;;;7.48;100.00
21236;BME280;10775;42.678;26.324;2024-03-17T01:38:41;99038.13;;;7.42;100.00
21236;BME280;10775;42.678;26.324;2024-03-17T01:41:06;99042.47;;;7.29;100.00
21236;BME280;10775;42.678;26.324;2024-03-17T01:43:32;99039.88;;;7.28;100.00
21236;BME280;10775;42.678;26.324;2024-03-17T01:45:59;99036.38;;;7.38;100.00
21236;BME280;10775;42.678;26.324;2024-03-17T01:48:25;99030.31;;;7.47;100.00
21236;BME280;10775;42.678;26.324;2024-03-17T01:50:53;99038.97;;;7.49;100.00
21236;BME280;10775;42.678;26.324;2024-03-17T01:53:21;99033.78;;;7.38;100.00
21236;BME280;10775;42.678;26.324;2024-03-17T01:55:51;99027.72;;;7.13;100.00
21236;BME280;10775;42.678;26.324;2024-03-17T01:58:20;99031.22;;;7.13;100.00
21236;BME280;10775;42.678;26.324;2024-03-17T02:00:45;99026.00;;;7.15;100.00
21236;BME280;10775;42.678;26.324;2024-03-17T02:03:12;99029.47;;;7.20;100.00
21236;BME280;10775;42.678;26.324;2024-03-17T02:05:38;99026.88;;;7.14;100.00
21236;BME280;10775;42.678;26.324;2024-03-17T02:08:07;99029.47;;;7.17;100.00
21236;BME280;10775;42.678;26.324;2024-03-17T02:10:33;99027.75;;;7.14;100.00
21236;BME280;10775;42.678;26.324;2024-03-17T02:13:00;99026.03;;;7.13;100.00
21236;BME280;10775;42.678;26.324;2024-03-17T02:15:26;99023.41;;;7.12;100.00
21236;BME280;10775;42.678;26.324;2024-03-17T02:17:52;99017.31;;;7.21;100.00
21236;BME280;10775;42.678;26.324;2024-03-17T02:20:17;99023.38;;;7.30;100.00
21236;BME280;10775;42.678;26.324;2024-03-17T02:22:43;99013.84;;;7.31;100.00
21236;BME280;10775;42.678;26.324;2024-03-17T02:25:09;99014.72;;;7.34;100.00
21236;BME280;10775;42.678;26.324;2024-03-17T02:27:37;99006.91;;;7.45;100.00
21236;BME280;10775;42.678;26.324;2024-03-17T02:30:04;99021.63;;;7.38;100.00
21236;BME280;10775;42.678;26.324;2024-03-17T02:32:35;99021.66;;;7.32;100.00
21236;BME280;10775;42.678;26.324;2024-03-17T02:35:01;99012.13;;;7.22;100.00
21236;BME280;10775;42.678;26.324;2024-03-17T02:37:27;99019.94;;;7.22;100.00
21236;BME280;10775;42.678;26.324;2024-03-17T02:39:52;99019.09;;;7.18;100.00
21236;BME280;10775;42.678;26.324;2024-03-17T02:42:18;99022.53;;;7.21;100.00
21236;BME280;10775;42.678;26.324;2024-03-17T02:44:44;99014.75;;;7.24;100.00
21236;BME280;10775;42.678;26.324;2024-03-17T02:47:11;99014.75;;;7.22;100.00
21236;BME280;10775;42.678;26.324;2024-03-17T02:49:40;99013.88;;;7.34;100.00
21236;BME280;10775;42.678;26.324;2024-03-17T02:52:09;99009.53;;;7.39;100.00
21236;BME280;10775;42.678;26.324;2024-03-17T02:54:35;99014.75;;;7.31;100.00
21236;BME280;10775;42.678;26.324;2024-03-17T02:57:02;99009.50;;;7.33;100.00
21236;BME280;10775;42.678;26.324;2024-03-17T02:59:28;99006.91;;;7.39;100.00
21236;BME280;10775;42.678;26.324;2024-03-17T03:01:53;99014.69;;;7.50;100.00
21236;BME280;10775;42.678;26.324;2024-03-17T03:04:19;99016.44;;;7.49;100.00
21236;BME280;10775;42.678;26.324;2024-03-17T03:06:45;99018.16;;;7.41;100.00
21236;BME280;10775;42.678;26.324;2024-03-17T03:09:11;99011.22;;;7.43;100.00
21236;BME280;10775;42.678;26.324;2024-03-17T03:11:45;99008.63;;;7.48;100.00
21236;BME280;10775;42.678;26.324;2024-03-17T03:14:12;99012.97;;;7.52;100.00
21236;BME280;10775;42.678;26.324;2024-03-17T03:16:37;99011.19;;;7.58;100.00
21236;BME280;10775;42.678;26.324;2024-03-17T03:19:03;99011.19;;;7.60;100.00
21236;BME280;10775;42.678;26.324;2024-03-17T03:21:30;99012.09;;;7.50;100.00
21236;BME280;10775;42.678;26.324;2024-03-17T03:23:56;99017.31;;;7.30;100.00
21236;BME280;10775;42.678;26.324;2024-03-17T03:26:21;99020.78;;;7.18;100.00
21236;BME280;10775;42.678;26.324;2024-03-17T03:28:48;99014.75;;;7.10;100.00
21236;BME280;10775;42.678;26.324;2024-03-17T03:31:14;99020.81;;;7.12;100.00
21236;BME280;10775;42.678;26.324;2024-03-17T03:33:40;99015.59;;;7.10;100.00
21236;BME280;10775;42.678;26.324;2024-03-17T03:36:08;99025.16;;;7.07;100.00
21236;BME280;10775;42.678;26.324;2024-03-17T03:38:33;99028.63;;;7.12;100.00
21236;BME280;10775;42.678;26.324;2024-03-17T03:41:15;99014.72;;;7.25;100.00
21236;BME280;10775;42.678;26.324;2024-03-17T03:43:41;99020.78;;;7.38;100.00
21236;BME280;10775;42.678;26.324;2024-03-17T03:46:09;99033.78;;;7.39;100.00
21236;BME280;10775;42.678;26.324;2024-03-17T03:48:36;99032.09;;;7.26;100.00
21236;BME280;10775;42.678;26.324;2024-03-17T03:51:05;99027.72;;;7.25;100.00
21236;BME280;10775;42.678;26.324;2024-03-17T03:53:32;99037.28;;;7.20;100.00
21236;BME280;10775;42.678;26.324;2024-03-17T03:55:57;99040.75;;;7.16;100.00
21236;BME280;10775;42.678;26.324;2024-03-17T03:58:24;99045.06;;;6.97;100.00
21236;BME280;10775;42.678;26.324;2024-03-17T04:00:49;99039.00;;;6.69;100.00
21236;BME280;10775;42.678;26.324;2024-03-17T04:03:15;99038.13;;;6.61;100.00
21236;BME280;10775;42.678;26.324;2024-03-17T04:05:40;99052.88;;;6.72;100.00
21236;BME280;10775;42.678;26.324;2024-03-17T04:08:06;99049.41;;;6.81;100.00
21236;BME280;10775;42.678;26.324;2024-03-17T04:10:32;99048.53;;;6.74;100.00
21236;BME280;10775;42.678;26.324;2024-03-17T04:12:57;99043.34;;;6.87;100.00
21236;BME280;10775;42.678;26.324;2024-03-17T04:15:22;99051.16;;;6.96;100.00
21236;BME280;10775;42.678;26.324;2024-03-17T04:17:48;99052.88;;;6.97;100.00
21236;BME280;10775;42.678;26.324;2024-03-17T04:20:14;99051.16;;;6.99;100.00
21236;BME280;10775;42.678;26.324;2024-03-17T04:22:42;99052.00;;;6.78;100.00
21236;BME280;10775;42.678;26.324;2024-03-17T04:25:08;99059.78;;;6.72;100.00
21236;BME280;10775;42.678;26.324;2024-03-17T04:27:34;99062.41;;;6.83;100.00
21236;BME280;10775;42.678;26.324;2024-03-17T04:30:00;99053.72;;;6.97;100.00
21236;BME280;10775;42.678;26.324;2024-03-17T04:32:26;99061.56;;;7.04;100.00
21236;BME280;10775;42.678;26.324;2024-03-17T04:34:54;99060.69;;;6.99;100.00
21236;BME280;10775;42.678;26.324;2024-03-17T04:37:20;99070.19;;;7.03;100.00
21236;BME280;10775;42.678;26.324;2024-03-17T04:39:46;99068.47;;;7.05;100.00
21236;BME280;10775;42.678;26.324;2024-03-17T04:42:13;99071.06;;;6.94;100.00
21236;BME280;10775;42.678;26.324;2024-03-17T04:44:43;99066.72;;;6.73;100.00
21236;BME280;10775;42.678;26.324;2024-03-17T04:47:09;99072.81;;;6.75;100.00
21236;BME280;10775;42.678;26.324;2024-03-17T04:49:44;99078.88;;;6.80;100.00
21236;BME280;10775;42.678;26.324;2024-03-17T04:52:11;99080.59;;;6.78;100.00
21236;BME280;10775;42.678;26.324;2024-03-17T04:54:37;99084.94;;;6.93;100.00
21236;BME280;10775;42.678;26.324;2024-03-17T04:57:03;99078.03;;;7.01;100.00
21236;BME280;10775;42.678;26.324;2024-03-17T04:59:29;99081.50;;;6.95;100.00
21236;BME280;10775;42.678;26.324;2024-03-17T05:01:54;99082.34;;;6.94;100.00
21236;BME280;10775;42.678;26.324;2024-03-17T05:04:20;99081.50;;;6.95;100.00
21236;BME280;10775;42.678;26.324;2024-03-17T05:06:46;99083.22;;;7.00;100.00
21236;BME280;10775;42.678;26.324;2024-03-17T05:09:18;99086.69;;;7.18;100.00
21236;BME280;10775;42.678;26.324;2024-03-17T05:11:44;99088.41;;;7.19;100.00
21236;BME280;10775;42.678;26.324;2024-03-17T05:14:10;99087.53;;;6.99;100.00
21236;BME280;10775;42.678;26.324;2024-03-17T05:16:36;99086.69;;;6.95;100.00
21236;BME280;10775;42.678;26.324;2024-03-17T05:19:01;99084.94;;;7.04;100.00
21236;BME280;10775;42.678;26.324;2024-03-17T05:21:27;99084.09;;;7.25;100.00
21236;BME280;10775;42.678;26.324;2024-03-17T05:23:56;99081.44;;;7.58;100.00
21236;BME280;10775;42.678;26.324;2024-03-17T05:26:22;99076.22;;;7.66;100.00
21236;BME280;10775;42.678;26.324;2024-03-17T05:28:47;99076.25;;;7.63;100.00
21236;BME280;10775;42.678;26.324;2024-03-17T05:31:13;99074.53;;;7.57;100.00
21236;BME280;10775;42.678;26.324;2024-03-17T05:33:43;99075.34;;;7.69;100.00
21236;BME280;10775;42.678;26.324;2024-03-17T05:36:08;99076.25;;;7.65;100.00
21236;BME280;10775;42.678;26.324;2024-03-17T05:38:34;99084.88;;;7.79;100.00
21236;BME280;10775;42.678;26.324;2024-03-17T05:41:04;99079.63;;;7.99;100.00
21236;BME280;10775;42.678;26.324;2024-03-17T05:43:30;99081.34;;;8.11;100.00
21236;BME280;10775;42.678;26.324;2024-03-17T05:46:00;99077.00;;;8.08;100.00
21236;BME280;10775;42.678;26.324;2024-03-17T05:48:27;99083.94;;;8.09;100.00
21236;BME280;10775;42.678;26.324;2024-03-17T05:50:52;99078.78;;;7.94;100.00
21236;BME280;10775;42.678;26.324;2024-03-17T05:53:19;99078.78;;;7.91;100.00
21236;BME280;10775;42.678;26.324;2024-03-17T05:55:45;99078.75;;;8.00;100.00
21236;BME280;10775;42.678;26.324;2024-03-17T05:58:11;99083.13;;;7.98;100.00
21236;BME280;10775;42.678;26.324;2024-03-17T06:00:37;99089.16;;;8.03;100.00
21236;BME280;10775;42.678;26.324;2024-03-17T06:03:04;99089.13;;;8.09;100.00
21236;BME280;10775;42.678;26.324;2024-03-17T06:05:35;99090.84;;;8.16;100.00
21236;BME280;10775;42.678;26.324;2024-03-17T06:08:02;99095.16;;;8.20;100.00
21236;BME280;10775;42.678;26.324;2024-03-17T06:10:32;99097.78;;;8.13;100.00
21236;BME280;10775;42.678;26.324;2024-03-17T06:12:57;99094.31;;;8.15;100.00
21236;BME280;10775;42.678;26.324;2024-03-17T06:15:25;99100.31;;;8.36;100.00
21236;BME280;10775;42.678;26.324;2024-03-17T06:17:51;99104.59;;;8.58;100.00
21236;BME280;10775;42.678;26.324;2024-03-17T06:20:24;99101.91;;;8.74;100.00
21236;BME280;10775;42.678;26.324;2024-03-17T06:22:52;99117.44;;;8.89;100.00
21236;BME280;10775;42.678;26.324;2024-03-17T06:25:18;99122.44;;;9.20;100.00
21236;BME280;10775;42.678;26.324;2024-03-17T06:27:43;99126.00;;;9.11;100.00
21236;BME280;10775;42.678;26.324;2024-03-17T06:30:12;99128.59;;;9.16;100.00
21236;BME280;10775;42.678;26.324;2024-03-17T06:32:42;99125.19;;;9.03;100.00
21236;BME280;10775;42.678;26.324;2024-03-17T06:35:11;99126.09;;;8.99;100.00
21236;BME280;10775;42.678;26.324;2024-03-17T06:37:37;99132.13;;;9.05;100.00
21236;BME280;10775;42.678;26.324;2024-03-17T06:40:04;99138.22;;;9.04;100.00
21236;BME280;10775;42.678;26.324;2024-03-17T06:42:30;99132.13;;;9.02;100.00
21236;BME280;10775;42.678;26.324;2024-03-17T06:44:55;99132.88;;;9.20;100.00
21236;BME280;10775;42.678;26.324;2024-03-17T06:47:21;99135.47;;;9.23;100.00
21236;BME280;10775;42.678;26.324;2024-03-17T06:49:46;99137.16;;;9.31;100.00
21236;BME280;10775;42.678;26.324;2024-03-17T06:52:11;99136.22;;;9.40;100.00
21236;BME280;10775;42.678;26.324;2024-03-17T06:54:37;99140.63;;;9.30;100.00
21236;BME280;10775;42.678;26.324;2024-03-17T06:57:03;99141.53;;;9.29;100.00
21236;BME280;10775;42.678;26.324;2024-03-17T06:59:28;99140.75;;;9.18;100.00
21236;BME280;10775;42.678;26.324;2024-03-17T07:01:58;99140.75;;;9.17;100.00
21236;BME280;10775;42.678;26.324;2024-03-17T07:04:23;99138.91;;;9.31;100.00
21236;BME280;10775;42.678;26.324;2024-03-17T07:06:49;99136.16;;;9.49;100.00
21236;BME280;10775;42.678;26.324;2024-03-17T07:09:15;99133.56;;;9.43;100.00
21236;BME280;10775;42.678;26.324;2024-03-17T07:11:42;99130.88;;;9.57;100.00
21236;BME280;10775;42.678;26.324;2024-03-17T07:14:09;99134.50;;;11.52;100.00
21236;BME280;10775;42.678;26.324;2024-03-17T07:16:35;99134.72;;;13.19;100.00
21236;BME280;10775;42.678;26.324;2024-03-17T07:19:02;99127.75;;;13.91;97.89
21236;BME280;10775;42.678;26.324;2024-03-17T07:21:27;99131.22;;;14.24;93.06
21236;BME280;10775;42.678;26.324;2024-03-17T07:23:53;99119.69;;;14.60;92.74
21236;BME280;10775;42.678;26.324;2024-03-17T07:26:18;99122.81;;;15.02;88.37
21236;BME280;10775;42.678;26.324;2024-03-17T07:28:44;99124.06;;;15.73;86.57
21236;BME280;10775;42.678;26.324;2024-03-17T07:31:10;99124.13;;;15.17;82.74
21236;BME280;10775;42.678;26.324;2024-03-17T07:33:35;99124.53;;;14.12;87.01
21236;BME280;10775;42.678;26.324;2024-03-17T07:36:01;99125.16;;;14.53;86.23
21236;BME280;10775;42.678;26.324;2024-03-17T07:38:29;99125.47;;;14.41;87.96
21236;BME280;10775;42.678;26.324;2024-03-17T07:41:05;99120.63;;;15.16;87.45
21236;BME280;10775;42.678;26.324;2024-03-17T07:43:33;99122.31;;;15.99;81.49
21236;BME280;10775;42.678;26.324;2024-03-17T07:46:06;99117.72;;;16.52;79.78
21236;BME280;10775;42.678;26.324;2024-03-17T07:48:34;99118.06;;;16.43;77.51
21236;BME280;10775;42.678;26.324;2024-03-17T07:51:02;99107.47;;;15.70;80.85
21236;BME280;10775;42.678;26.324;2024-03-17T07:53:29;99113.94;;;16.60;78.81
21236;BME280;10775;42.678;26.324;2024-03-17T07:56:05;99114.72;;;17.09;76.90
21236;BME280;10775;42.678;26.324;2024-03-17T07:58:32;99107.69;;;16.86;75.58
21236;BME280;10775;42.678;26.324;2024-03-17T08:01:00;99112.88;;;17.11;76.07
21236;BME280;10775;42.678;26.324;2024-03-17T08:03:27;99109.53;;;17.50;73.95
21236;BME280;10775;42.678;26.324;2024-03-17T08:05:53;99108.25;;;17.60;71.85
21236;BME280;10775;42.678;26.324;2024-03-17T08:08:19;99115.63;;;17.30;72.90
21236;BME280;10775;42.678;26.324;2024-03-17T08:10:45;99113.03;;;16.84;73.13
21236;BME280;10775;42.678;26.324;2024-03-17T08:13:13;99115.75;;;15.31;77.40
21236;BME280;10775;42.678;26.324;2024-03-17T08:15:41;99118.13;;;13.56;85.10
21236;BME280;10775;42.678;26.324;2024-03-17T08:18:07;99120.72;;;13.20;90.45
21236;BME280;10775;42.678;26.324;2024-03-17T08:20:37;99109.66;;;14.74;88.01
21236;BME280;10775;42.678;26.324;2024-03-17T08:23:03;99108.94;;;14.67;82.65
21236;BME280;10775;42.678;26.324;2024-03-17T08:25:28;99111.59;;;14.36;84.12
21236;BME280;10775;42.678;26.324;2024-03-17T08:27:54;99111.81;;;13.63;86.88
21236;BME280;10775;42.678;26.324;2024-03-17T08:30:19;99112.94;;;13.17;90.49
21236;BME280;10775;42.678;26.324;2024-03-17T08:32:44;99110.41;;;13.12;90.68
21236;BME280;10775;42.678;26.324;2024-03-17T08:35:10;99106.28;;;13.00;91.72
21236;BME280;10775;42.678;26.324;2024-03-17T08:37:36;99097.41;;;13.06;92.20
21236;BME280;10775;42.678;26.324;2024-03-17T08:40:02;99099.25;;;13.02;92.90
21236;BME280;10775;42.678;26.324;2024-03-17T08:42:27;99099.69;;;12.84;92.96
21236;BME280;10775;42.678;26.324;2024-03-17T08:44:53;99093.59;;;12.82;93.54
21236;BME280;10775;42.678;26.324;2024-03-17T08:47:19;99091.81;;;12.84;94.00
21236;BME280;10775;42.678;26.324;2024-03-17T08:49:45;99088.84;;;12.98;93.01
21236;BME280;10775;42.678;26.324;2024-03-17T08:52:10;99076.75;;;13.30;94.68
21236;BME280;10775;42.678;26.324;2024-03-17T08:54:35;99072.06;;;15.25;89.57
21236;BME280;10775;42.678;26.324;2024-03-17T08:57:01;99073.13;;;16.46;82.33
21236;BME280;10775;42.678;26.324;2024-03-17T08:59:27;99076.03;;;16.62;78.49
21236;BME280;10775;42.678;26.324;2024-03-17T09:01:53;99073.44;;;16.61;78.72
21236;BME280;10775;42.678;26.324;2024-03-17T09:04:19;99075.38;;;16.56;77.54
21236;BME280;10775;42.678;26.324;2024-03-17T09:06:44;99067.97;;;16.89;78.49
21236;BME280;10775;42.678;26.324;2024-03-17T09:09:10;99065.97;;;17.38;75.89
21236;BME280;10775;42.678;26.324;2024-03-17T09:11:35;99053.63;;;15.77;77.54
21236;BME280;10775;42.678;26.324;2024-03-17T09:14:00;99063.22;;;16.28;80.26
21236;BME280;10775;42.678;26.324;2024-03-17T09:16:26;99057.97;;;17.19;76.51
21236;BME280;10775;42.678;26.324;2024-03-17T09:18:53;99053.19;;;17.49;73.34
21236;BME280;10775;42.678;26.324;2024-03-17T09:21:19;99049.16;;;17.61;74.12
21236;BME280;10775;42.678;26.324;2024-03-17T09:23:44;99055.88;;;17.48;73.57
21236;BME280;10775;42.678;26.324;2024-03-17T09:26:11;99054.00;;;17.29;72.81
21236;BME280;10775;42.678;26.324;2024-03-17T09:28:38;99045.63;;;17.40;72.99
21236;BME280;10775;42.678;26.324;2024-03-17T09:31:03;99041.28;;;17.59;74.65
21236;BME280;10775;42.678;26.324;2024-03-17T09:33:32;99043.22;;;16.91;73.00
21236;BME280;10775;42.678;26.324;2024-03-17T09:36:03;99045.25;;;15.91;76.68
21236;BME280;10775;42.678;26.324;2024-03-17T09:38:31;99048.53;;;15.46;79.14
21236;BME280;10775;42.678;26.324;2024-03-17T09:40:57;99051.09;;;15.22;81.12
21236;BME280;10775;42.678;26.324;2024-03-17T09:43:32;99045.00;;;14.65;82.75
21236;BME280;10775;42.678;26.324;2024-03-17T09:45:58;99042.69;;;14.83;84.25
21236;BME280;10775;42.678;26.324;2024-03-17T09:48:25;99032.59;;;14.97;84.65
21236;BME280;10775;42.678;26.324;2024-03-17T09:50:59;99035.34;;;14.94;84.82
21236;BME280;10775;42.678;26.324;2024-03-17T09:53:27;99030.56;;;15.05;85.88
21236;BME280;10775;42.678;26.324;2024-03-17T09:56:16;99042.38;;;14.65;85.02
21236;BME280;10775;42.678;26.324;2024-03-17T09:58:44;99033.34;;;15.00;86.59
21236;BME280;10775;42.678;26.324;2024-03-17T10:01:10;99030.22;;;15.42;86.14
21236;BME280;10775;42.678;26.324;2024-03-17T10:06:14;99030.38;;;17.04;80.19
21236;BME280;10775;42.678;26.324;2024-03-17T10:09:00;99031.00;;;16.89;77.67
21236;BME280;10775;42.678;26.324;2024-03-17T10:11:35;99030.66;;;16.29;77.86
21236;BME280;10775;42.678;26.324;2024-03-17T10:14:04;99028.91;;;15.81;79.88
21236;BME280;10775;42.678;26.324;2024-03-17T10:16:31;99029.13;;;15.75;81.34
21236;BME280;10775;42.678;26.324;2024-03-17T10:19:12;99027.28;;;15.77;81.86
21236;BME280;10775;42.678;26.324;2024-03-17T10:21:43;99025.28;;;16.32;79.94
21236;BME280;10775;42.678;26.324;2024-03-17T10:24:10;99015.06;;;16.46;77.00
21236;BME280;10775;42.678;26.324;2024-03-17T10:29:05;99020.00;;;16.08;76.09
21236;BME280;10775;42.678;26.324;2024-03-17T10:31:31;99012.03;;;16.56;75.07
21236;BME280;10775;42.678;26.324;2024-03-17T10:34:03;99023.47;;;16.33;74.90
21236;BME280;10775;42.678;26.324;2024-03-17T10:36:28;99023.78;;;16.25;78.45
21236;BME280;10775;42.678;26.324;2024-03-17T10:38:54;99018.56;;;16.69;76.83
21236;BME280;10775;42.678;26.324;2024-03-17T10:41:21;99013.28;;;16.92;74.59
21236;BME280;10775;42.678;26.324;2024-03-17T10:43:47;99007.66;;;17.43;76.08
21236;BME280;10775;42.678;26.324;2024-03-17T10:46:14;99009.16;;;17.28;74.70
21236;BME280;10775;42.678;26.324;2024-03-17T10:48:41;99008.28;;;16.39;74.09
21236;BME280;10775;42.678;26.324;2024-03-17T10:51:14;99009.19;;;16.62;76.79
21236;BME280;10775;42.678;26.324;2024-03-17T10:53:45;99006.09;;;16.50;77.53
21236;BME280;10775;42.678;26.324;2024-03-17T10:56:15;99009.09;;;15.94;79.28
21236;BME280;10775;42.678;26.324;2024-03-17T10:58:44;99001.38;;;15.38;79.59
21236;BME280;10775;42.678;26.324;2024-03-17T11:01:16;98999.22;;;15.76;83.14
21236;BME280;10775;42.678;26.324;2024-03-17T11:03:46;98994.81;;;16.00;79.04
21236;BME280;10775;42.678;26.324;2024-03-17T11:06:12;98998.22;;;16.03;81.80
21236;BME280;10775;42.678;26.324;2024-03-17T11:08:39;98986.31;;;15.66;79.71
21236;BME280;10775;42.678;26.324;2024-03-17T11:11:04;98989.66;;;15.47;80.25
21236;BME280;10775;42.678;26.324;2024-03-17T11:13:32;98983.53;;;15.46;84.87
21236;BME280;10775;42.678;26.324;2024-03-17T11:15:58;98977.88;;;15.57;82.27
21236;BME280;10775;42.678;26.324;2024-03-17T11:21:03;98973.75;;;15.50;82.02
21236;BME280;10775;42.678;26.324;2024-03-17T11:23:41;98975.69;;;15.70;81.65
21236;BME280;10775;42.678;26.324;2024-03-17T11:26:08;98965.63;;;15.81;81.32
21236;BME280;10775;42.678;26.324;2024-03-17T11:31:40;98964.78;;;15.80;81.31
21236;BME280;10775;42.678;26.324;2024-03-17T11:34:25;98956.44;;;15.93;81.16
21236;BME280;10775;42.678;26.324;2024-03-17T11:36:51;98956.59;;;16.12;80.72
21236;BME280;10775;42.678;26.324;2024-03-17T11:39:18;98954.69;;;16.15;81.38
21236;BME280;10775;42.678;26.324;2024-03-17T11:41:52;98933.47;;;16.40;81.27
21236;BME280;10775;42.678;26.324;2024-03-17T11:46:56;98935.72;;;16.95;79.14
21236;BME280;10775;42.678;26.324;2024-03-17T11:49:36;98939.88;;;16.57;77.30
21236;BME280;10775;42.678;26.324;2024-03-17T11:52:07;98946.00;;;16.35;79.73
21236;BME280;10775;42.678;26.324;2024-03-17T11:54:35;98940.03;;;16.30;77.82
21236;BME280;10775;42.678;26.324;2024-03-17T11:57:02;98941.19;;;16.01;78.01
21236;BME280;10775;42.678;26.324;2024-03-17T11:59:29;98931.31;;;15.82;80.38
21236;BME280;10775;42.678;26.324;2024-03-17T12:01:54;98932.03;;;15.62;77.67
21236;BME280;10775;42.678;26.324;2024-03-17T12:04:22;98923.75;;;15.48;78.76
21236;BME280;10775;42.678;26.324;2024-03-17T12:09:28;98926.63;;;16.13;77.46
21236;BME280;10775;42.678;26.324;2024-03-17T12:12:06;98919.69;;;16.78;75.23
21236;BME280;10775;42.678;26.324;2024-03-17T12:14:33;98910.06;;;16.97;72.25
21236;BME280;10775;42.678;26.324;2024-03-17T12:19:29;98905.66;;;16.98;71.67
21236;BME280;10775;42.678;26.324;2024-03-17T12:21:59;98909.34;;;16.93;71.55
21236;BME280;10775;42.678;26.324;2024-03-17T12:24:26;98908.84;;;17.26;71.58
21236;BME280;10775;42.678;26.324;2024-03-17T12:26:53;98895.81;;;17.22;68.79
21236;BME280;10775;42.678;26.324;2024-03-17T12:29:39;98890.88;;;17.53;69.24
21236;BME280;10775;42.678;26.324;2024-03-17T12:34:36;98890.69;;;17.58;70.68
21236;BME280;10775;42.678;26.324;2024-03-17T12:37:03;98895.06;;;17.59;70.42
21236;BME280;10775;42.678;26.324;2024-03-17T12:39:33;98895.22;;;17.75;70.95
21236;BME280;10775;42.678;26.324;2024-03-17T12:47:21;98882.56;;;17.23;73.46
21236;BME280;10775;42.678;26.324;2024-03-17T12:49:54;98882.41;;;17.26;73.04
21236;BME280;10775;42.678;26.324;2024-03-17T12:52:25;98882.00;;;16.94;72.38
21236;BME280;10775;42.678;26.324;2024-03-17T12:57:42;98869.47;;;16.79;74.72
21236;BME280;10775;42.678;26.324;2024-03-17T13:00:26;98871.97;;;17.44;75.76
21236;BME280;10775;42.678;26.324;2024-03-17T13:02:58;98862.25;;;17.44;73.11
21236;BME280;10775;42.678;26.324;2024-03-17T13:05:24;98864.66;;;17.09;73.62
21236;BME280;10775;42.678;26.324;2024-03-17T13:07:50;98870.72;;;16.91;75.83
21236;BME280;10775;42.678;26.324;2024-03-17T13:10:17;98866.75;;;16.59;77.32
21236;BME280;10775;42.678;26.324;2024-03-17T13:12:44;98870.03;;;16.43;77.10
21236;BME280;10775;42.678;26.324;2024-03-17T13:15:17;98859.59;;;16.40;78.24
21236;BME280;10775;42.678;26.324;2024-03-17T13:17:43;98860.16;;;16.48;78.84
21236;BME280;10775;42.678;26.324;2024-03-17T13:20:16;98851.66;;;16.62;78.49